sensor_id;sensor_type;location;lat;lon;timestamp;temperature;humidity
24226;DHT22;51462;51.422;5.514;2023-02-01T00:01:24;6.10;99.90
24226;DHT22;51462;51.422;5.514;2023-02-01T00:03:49;6.10;99.90
24226;DHT22;51462;51.422;5.514;2023-02-01T00:06:15;6.00;99.90
24226;DHT22;51462;51.422;5.514;2023-02-01T00:08:40;6.10;99.90
24226;DHT22;51462;51.422;5.514;2023-02-01T00:11:08;6.20;99.90
24226;DHT22;51462;51.422;5.514;2023-02-01T00:13:36;6.00;99.90
24226;DHT22;51462;51.422;5.514;2023-02-01T00:16:22;6.00;99.90
24226;DHT22;51462;51.422;5.514;2023-02-01T00:18:50;6.00;99.90
24226;DHT22;51462;51.422;5.514;2023-02-01T00:21:20;6.00;99.90
24226;DHT22;51462;51.422;5.514;2023-02-01T00:23:46;5.90;99.90
24226;DHT22;51462;51.422;5.514;2023-02-01T00:26:27;5.80;99.90
24226;DHT22;51462;51.422;5.514;2023-02-01T00:28:53;6.00;99.90
24226;DHT22;51462;51.422;5.514;2023-02-01T00:31:18;5.90;99.90
24226;DHT22;51462;51.422;5.514;2023-02-01T00:33:47;5.90;99.90
24226;DHT22;51462;51.422;5.514;2023-02-01T00:36:13;5.90;99.90
24226;DHT22;51462;51.422;5.514;2023-02-01T00:38:38;5.80;99.90
24226;DHT22;51462;51.422;5.514;2023-02-01T00:41:10;5.80;99.90
24226;DHT22;51462;51.422;5.514;2023-02-01T00:43:37;5.80;99.90
24226;DHT22;51462;51.422;5.514;2023-02-01T00:46:03;5.70;99.90
24226;DHT22;51462;51.422;5.514;2023-02-01T00:48:29;5.60;99.90
24226;DHT22;51462;51.422;5.514;2023-02-01T00:50:58;5.80;99.90
24226;DHT22;51462;51.422;5.514;2023-02-01T00:53:23;6.00;99.90
24226;DHT22;51462;51.422;5.514;2023-02-01T00:55:49;6.00;99.90
24226;DHT22;51462;51.422;5.514;2023-02-01T00:58:15;5.70;99.90
24226;DHT22;51462;51.422;5.514;2023-02-01T01:00:40;5.70;99.90
24226;DHT22;51462;51.422;5.514;2023-02-01T01:03:06;5.60;99.90
24226;DHT22;51462;51.422;5.514;2023-02-01T01:05:47;5.60;99.90
24226;DHT22;51462;51.422;5.514;2023-02-01T01:08:13;5.70;99.90
24226;DHT22;51462;51.422;5.514;2023-02-01T01:10:39;5.60;99.90
24226;DHT22;51462;51.422;5.514;2023-02-01T01:13:05;5.60;99.90
24226;DHT22;51462;51.422;5.514;2023-02-01T01:15:35;5.60;99.90
24226;DHT22;51462;51.422;5.514;2023-02-01T01:18:00;5.60;99.90
24226;DHT22;51462;51.422;5.514;2023-02-01T01:20:26;5.60;99.90
24226;DHT22;51462;51.422;5.514;2023-02-01T01:22:51;5.50;99.90
24226;DHT22;51462;51.422;5.514;2023-02-01T01:25:17;5.50;99.90
24226;DHT22;51462;51.422;5.514;2023-02-01T01:27:42;5.50;99.90
24226;DHT22;51462;51.422;5.514;2023-02-01T01:30:08;5.70;99.90
24226;DHT22;51462;51.422;5.514;2023-02-01T01:32:34;5.50;99.90
24226;DHT22;51462;51.422;5.514;2023-02-01T01:35:00;5.50;99.90
24226;DHT22;51462;51.422;5.514;2023-02-01T01:37:25;5.40;99.90
24226;DHT22;51462;51.422;5.514;2023-02-01T01:39:51;5.60;99.90
24226;DHT22;51462;51.422;5.514;2023-02-01T01:42:16;5.40;99.90
24226;DHT22;51462;51.422;5.514;2023-02-01T01:45:18;5.50;99.90
24226;DHT22;51462;51.422;5.514;2023-02-01T01:47:51;5.50;99.90
24226;DHT22;51462;51.422;5.514;2023-02-01T01:50:22;5.40;99.90
24226;DHT22;51462;51.422;5.514;2023-02-01T01:52:50;5.20;99.90
24226;DHT22;51462;51.422;5.514;2023-02-01T01:55:18;5.20;99.90
24226;DHT22;51462;51.422;5.514;2023-02-01T01:57:50;5.20;99.90
24226;DHT22;51462;51.422;5.514;2023-02-01T02:00:18;5.30;99.90
24226;DHT22;51462;51.422;5.514;2023-02-01T02:02:48;5.50;99.90
24226;DHT22;51462;51.422;5.514;2023-02-01T02:05:19;5.30;99.90
24226;DHT22;51462;51.422;5.514;2023-02-01T02:07:50;5.50;99.90
24226;DHT22;51462;51.422;5.514;2023-02-01T02:10:17;5.30;99.90
24226;DHT22;51462;51.422;5.514;2023-02-01T02:12:47;5.40;99.90
24226;DHT22;51462;51.422;5.514;2023-02-01T02:15:14;5.30;99.90
24226;DHT22;51462;51.422;5.514;2023-02-01T02:18:01;5.20;99.90
24226;DHT22;51462;51.422;5.514;2023-02-01T02:20:45;5.20;99.90
24226;DHT22;51462;51.422;5.514;2023-02-01T02:34:44;5.40;99.90
24226;DHT22;51462;51.422;5.514;2023-02-01T02:42:48;5.50;99.90
24226;DHT22;51462;51.422;5.514;2023-02-01T02:45:40;5.40;99.90
24226;DHT22;51462;51.422;5.514;2023-02-01T02:48:45;5.50;99.90
24226;DHT22;51462;51.422;5.514;2023-02-01T02:51:25;5.50;99.90
24226;DHT22;51462;51.422;5.514;2023-02-01T02:54:14;5.30;99.90
24226;DHT22;51462;51.422;5.514;2023-02-01T02:57:00;5.50;99.90
24226;DHT22;51462;51.422;5.514;2023-02-01T02:59:47;5.60;99.90
24226;DHT22;51462;51.422;5.514;2023-02-01T03:02:32;5.30;99.90
24226;DHT22;51462;51.422;5.514;2023-02-01T03:05:18;5.40;99.90
24226;DHT22;51462;51.422;5.514;2023-02-01T03:11:09;5.40;99.90
24226;DHT22;51462;51.422;5.514;2023-02-01T03:18:50;5.30;99.90
24226;DHT22;51462;51.422;5.514;2023-02-01T03:21:38;5.30;99.90
24226;DHT22;51462;51.422;5.514;2023-02-01T03:24:09;5.40;99.90
24226;DHT22;51462;51.422;5.514;2023-02-01T03:26:38;5.40;99.90
24226;DHT22;51462;51.422;5.514;2023-02-01T03:29:12;5.30;99.90
24226;DHT22;51462;51.422;5.514;2023-02-01T03:31:39;5.30;99.90
24226;DHT22;51462;51.422;5.514;2023-02-01T03:34:05;5.50;99.90
24226;DHT22;51462;51.422;5.514;2023-02-01T03:36:38;5.40;99.90
24226;DHT22;51462;51.422;5.514;2023-02-01T03:39:20;5.40;99.90
24226;DHT22;51462;51.422;5.514;2023-02-01T03:41:58;5.50;99.90
24226;DHT22;51462;51.422;5.514;2023-02-01T03:47:07;5.50;99.90
24226;DHT22;51462;51.422;5.514;2023-02-01T03:49:35;5.40;99.90
24226;DHT22;51462;51.422;5.514;2023-02-01T03:52:02;5.40;99.90
24226;DHT22;51462;51.422;5.514;2023-02-01T03:54:30;5.30;99.90
24226;DHT22;51462;51.422;5.514;2023-02-01T03:57:01;5.40;99.90
24226;DHT22;51462;51.422;5.514;2023-02-01T03:59:28;5.40;99.90
24226;DHT22;51462;51.422;5.514;2023-02-01T04:01:54;5.50;99.90
24226;DHT22;51462;51.422;5.514;2023-02-01T04:04:20;5.40;99.90
24226;DHT22;51462;51.422;5.514;2023-02-01T04:06:49;5.30;99.90
24226;DHT22;51462;51.422;5.514;2023-02-01T04:09:16;5.20;99.90
24226;DHT22;51462;51.422;5.514;2023-02-01T04:11:42;5.30;99.90
24226;DHT22;51462;51.422;5.514;2023-02-01T04:14:08;5.20;99.90
24226;DHT22;51462;51.422;5.514;2023-02-01T04:16:34;5.20;99.90
24226;DHT22;51462;51.422;5.514;2023-02-01T04:19:00;5.30;99.90
24226;DHT22;51462;51.422;5.514;2023-02-01T04:21:26;5.20;99.90
24226;DHT22;51462;51.422;5.514;2023-02-01T04:23:52;5.20;99.90
24226;DHT22;51462;51.422;5.514;2023-02-01T04:26:18;5.30;99.90
24226;DHT22;51462;51.422;5.514;2023-02-01T04:28:44;5.20;99.90
24226;DHT22;51462;51.422;5.514;2023-02-01T04:31:16;5.20;99.90
24226;DHT22;51462;51.422;5.514;2023-02-01T04:33:42;5.20;99.90
24226;DHT22;51462;51.422;5.514;2023-02-01T04:36:08;5.20;99.90
24226;DHT22;51462;51.422;5.514;2023-02-01T04:38:34;5.20;99.90
24226;DHT22;51462;51.422;5.514;2023-02-01T04:40:59;5.20;99.90
24226;DHT22;51462;51.422;5.514;2023-02-01T04:43:25;5.20;99.90
24226;DHT22;51462;51.422;5.514;2023-02-01T04:45:51;5.00;99.90
24226;DHT22;51462;51.422;5.514;2023-02-01T04:48:18;5.10;99.90
24226;DHT22;51462;51.422;5.514;2023-02-01T04:50:45;4.90;99.90
24226;DHT22;51462;51.422;5.514;2023-02-01T04:53:13;4.80;99.90
24226;DHT22;51462;51.422;5.514;2023-02-01T04:55:40;5.00;99.90
24226;DHT22;51462;51.422;5.514;2023-02-01T04:58:05;5.00;99.90
24226;DHT22;51462;51.422;5.514;2023-02-01T05:00:31;5.30;99.90
24226;DHT22;51462;51.422;5.514;2023-02-01T05:02:56;5.00;99.90
24226;DHT22;51462;51.422;5.514;2023-02-01T05:05:22;4.90;99.90
24226;DHT22;51462;51.422;5.514;2023-02-01T05:07:47;5.00;99.90
24226;DHT22;51462;51.422;5.514;2023-02-01T05:10:13;4.90;99.90
24226;DHT22;51462;51.422;5.514;2023-02-01T05:12:38;4.80;99.90
24226;DHT22;51462;51.422;5.514;2023-02-01T05:15:23;4.80;99.90
24226;DHT22;51462;51.422;5.514;2023-02-01T05:17:48;4.80;99.90
24226;DHT22;51462;51.422;5.514;2023-02-01T05:20:14;5.10;99.90
24226;DHT22;51462;51.422;5.514;2023-02-01T05:22:41;4.90;99.90
24226;DHT22;51462;51.422;5.514;2023-02-01T05:25:07;4.80;99.90
24226;DHT22;51462;51.422;5.514;2023-02-01T05:27:32;4.80;99.90
24226;DHT22;51462;51.422;5.514;2023-02-01T05:29:58;4.90;99.90
24226;DHT22;51462;51.422;5.514;2023-02-01T05:32:23;5.10;99.90
24226;DHT22;51462;51.422;5.514;2023-02-01T05:34:49;5.10;99.90
24226;DHT22;51462;51.422;5.514;2023-02-01T05:37:15;4.90;99.90
24226;DHT22;51462;51.422;5.514;2023-02-01T05:39:40;5.10;99.90
24226;DHT22;51462;51.422;5.514;2023-02-01T05:42:06;5.10;99.90
24226;DHT22;51462;51.422;5.514;2023-02-01T05:44:31;4.90;99.90
24226;DHT22;51462;51.422;5.514;2023-02-01T05:46:57;4.90;99.90
24226;DHT22;51462;51.422;5.514;2023-02-01T05:49:22;4.90;99.90
24226;DHT22;51462;51.422;5.514;2023-02-01T05:51:48;5.00;99.90
24226;DHT22;51462;51.422;5.514;2023-02-01T05:54:14;4.90;99.90
24226;DHT22;51462;51.422;5.514;2023-02-01T05:56:39;5.00;99.90
24226;DHT22;51462;51.422;5.514;2023-02-01T05:59:06;5.20;99.90
24226;DHT22;51462;51.422;5.514;2023-02-01T06:01:31;5.30;99.90
24226;DHT22;51462;51.422;5.514;2023-02-01T06:03:57;5.00;99.90
24226;DHT22;51462;51.422;5.514;2023-02-01T06:06:22;5.10;99.90
24226;DHT22;51462;51.422;5.514;2023-02-01T06:08:48;5.10;99.90
24226;DHT22;51462;51.422;5.514;2023-02-01T06:11:13;5.20;99.90
24226;DHT22;51462;51.422;5.514;2023-02-01T06:13:39;5.00;99.90
24226;DHT22;51462;51.422;5.514;2023-02-01T06:16:05;5.00;99.90
24226;DHT22;51462;51.422;5.514;2023-02-01T06:18:33;5.00;99.90
24226;DHT22;51462;51.422;5.514;2023-02-01T06:20:59;5.10;99.90
24226;DHT22;51462;51.422;5.514;2023-02-01T06:23:29;5.10;99.90
24226;DHT22;51462;51.422;5.514;2023-02-01T06:26:03;5.00;99.90
24226;DHT22;51462;51.422;5.514;2023-02-01T06:28:29;5.10;99.90
24226;DHT22;51462;51.422;5.514;2023-02-01T06:30:56;5.10;99.90
24226;DHT22;51462;51.422;5.514;2023-02-01T06:33:23;5.30;99.90
24226;DHT22;51462;51.422;5.514;2023-02-01T06:35:56;5.10;99.90
24226;DHT22;51462;51.422;5.514;2023-02-01T06:38:22;5.00;99.90
24226;DHT22;51462;51.422;5.514;2023-02-01T06:40:52;5.10;99.90
24226;DHT22;51462;51.422;5.514;2023-02-01T06:43:18;5.00;99.90
24226;DHT22;51462;51.422;5.514;2023-02-01T06:45:44;5.00;99.90
24226;DHT22;51462;51.422;5.514;2023-02-01T06:48:09;5.00;99.90
24226;DHT22;51462;51.422;5.514;2023-02-01T06:50:35;5.10;99.90
24226;DHT22;51462;51.422;5.514;2023-02-01T06:53:01;5.00;99.90
24226;DHT22;51462;51.422;5.514;2023-02-01T06:55:26;5.30;99.90
24226;DHT22;51462;51.422;5.514;2023-02-01T06:57:55;5.10;99.90
24226;DHT22;51462;51.422;5.514;2023-02-01T07:00:22;5.10;99.90
24226;DHT22;51462;51.422;5.514;2023-02-01T07:02:48;5.10;99.90
24226;DHT22;51462;51.422;5.514;2023-02-01T07:05:13;5.30;99.90
24226;DHT22;51462;51.422;5.514;2023-02-01T07:07:39;5.20;99.90
24226;DHT22;51462;51.422;5.514;2023-02-01T07:10:05;5.10;99.90
24226;DHT22;51462;51.422;5.514;2023-02-01T07:12:31;5.20;99.90
24226;DHT22;51462;51.422;5.514;2023-02-01T07:14:56;5.20;99.90
24226;DHT22;51462;51.422;5.514;2023-02-01T07:17:22;5.20;99.90
24226;DHT22;51462;51.422;5.514;2023-02-01T07:19:48;5.30;99.90
24226;DHT22;51462;51.422;5.514;2023-02-01T07:22:16;5.10;99.90
24226;DHT22;51462;51.422;5.514;2023-02-01T07:24:42;5.10;99.90
24226;DHT22;51462;51.422;5.514;2023-02-01T07:27:07;5.00;99.90
24226;DHT22;51462;51.422;5.514;2023-02-01T07:29:33;5.10;99.90
24226;DHT22;51462;51.422;5.514;2023-02-01T07:31:58;5.00;99.90
24226;DHT22;51462;51.422;5.514;2023-02-01T07:34:25;5.00;99.90
24226;DHT22;51462;51.422;5.514;2023-02-01T07:36:51;4.90;99.90
24226;DHT22;51462;51.422;5.514;2023-02-01T07:39:16;5.00;99.90
24226;DHT22;51462;51.422;5.514;2023-02-01T07:41:42;4.90;99.90
24226;DHT22;51462;51.422;5.514;2023-02-01T07:44:07;5.00;99.90
24226;DHT22;51462;51.422;5.514;2023-02-01T07:46:33;4.90;99.90
24226;DHT22;51462;51.422;5.514;2023-02-01T07:48:59;4.90;99.90
24226;DHT22;51462;51.422;5.514;2023-02-01T07:51:24;4.90;99.90
24226;DHT22;51462;51.422;5.514;2023-02-01T07:53:50;4.90;99.90
24226;DHT22;51462;51.422;5.514;2023-02-01T07:56:18;5.00;99.90
24226;DHT22;51462;51.422;5.514;2023-02-01T07:58:48;5.10;99.90
24226;DHT22;51462;51.422;5.514;2023-02-01T08:01:24;5.10;99.90
24226;DHT22;51462;51.422;5.514;2023-02-01T08:06:18;5.00;99.90
24226;DHT22;51462;51.422;5.514;2023-02-01T08:08:45;4.90;99.90
24226;DHT22;51462;51.422;5.514;2023-02-01T08:11:13;4.80;99.90
24226;DHT22;51462;51.422;5.514;2023-02-01T08:13:38;5.10;99.90
24226;DHT22;51462;51.422;5.514;2023-02-01T08:16:06;4.90;99.90
24226;DHT22;51462;51.422;5.514;2023-02-01T08:18:32;5.00;99.90
24226;DHT22;51462;51.422;5.514;2023-02-01T08:21:03;5.10;99.90
24226;DHT22;51462;51.422;5.514;2023-02-01T08:23:29;5.20;99.90
24226;DHT22;51462;51.422;5.514;2023-02-01T08:26:04;5.20;99.90
24226;DHT22;51462;51.422;5.514;2023-02-01T08:28:30;5.20;99.90
24226;DHT22;51462;51.422;5.514;2023-02-01T08:30:55;5.10;99.90
24226;DHT22;51462;51.422;5.514;2023-02-01T08:33:21;5.00;99.90
24226;DHT22;51462;51.422;5.514;2023-02-01T08:35:47;5.10;99.90
24226;DHT22;51462;51.422;5.514;2023-02-01T08:38:13;5.10;99.90
24226;DHT22;51462;51.422;5.514;2023-02-01T08:40:38;5.10;99.90
24226;DHT22;51462;51.422;5.514;2023-02-01T08:43:04;5.30;99.90
24226;DHT22;51462;51.422;5.514;2023-02-01T08:45:29;5.20;99.90
24226;DHT22;51462;51.422;5.514;2023-02-01T08:47:56;5.20;99.90
24226;DHT22;51462;51.422;5.514;2023-02-01T08:50:22;5.30;99.90
24226;DHT22;51462;51.422;5.514;2023-02-01T08:52:48;5.40;99.90
24226;DHT22;51462;51.422;5.514;2023-02-01T08:55:14;5.40;99.90
24226;DHT22;51462;51.422;5.514;2023-02-01T08:57:40;5.40;99.90
24226;DHT22;51462;51.422;5.514;2023-02-01T09:00:09;5.40;99.90
24226;DHT22;51462;51.422;5.514;2023-02-01T09:02:36;5.50;99.90
24226;DHT22;51462;51.422;5.514;2023-02-01T09:05:01;5.60;99.90
24226;DHT22;51462;51.422;5.514;2023-02-01T09:07:27;5.70;99.90
24226;DHT22;51462;51.422;5.514;2023-02-01T09:09:53;5.90;99.90
24226;DHT22;51462;51.422;5.514;2023-02-01T09:12:20;5.70;99.90
24226;DHT22;51462;51.422;5.514;2023-02-01T09:14:46;5.80;99.90
24226;DHT22;51462;51.422;5.514;2023-02-01T09:17:11;6.00;99.90
24226;DHT22;51462;51.422;5.514;2023-02-01T09:19:39;6.00;99.90
24226;DHT22;51462;51.422;5.514;2023-02-01T09:22:04;6.10;99.90
24226;DHT22;51462;51.422;5.514;2023-02-01T09:24:30;6.10;99.90
24226;DHT22;51462;51.422;5.514;2023-02-01T09:26:56;6.10;99.90
24226;DHT22;51462;51.422;5.514;2023-02-01T09:29:21;6.20;99.90
24226;DHT22;51462;51.422;5.514;2023-02-01T09:31:47;6.30;99.90
24226;DHT22;51462;51.422;5.514;2023-02-01T09:34:12;6.30;99.90
24226;DHT22;51462;51.422;5.514;2023-02-01T09:36:38;6.40;99.90
24226;DHT22;51462;51.422;5.514;2023-02-01T09:39:03;6.40;99.90
24226;DHT22;51462;51.422;5.514;2023-02-01T09:47:15;6.50;99.90
24226;DHT22;51462;51.422;5.514;2023-02-01T09:50:02;6.70;99.90
24226;DHT22;51462;51.422;5.514;2023-02-01T09:52:48;6.80;99.90
24226;DHT22;51462;51.422;5.514;2023-02-01T09:55:30;6.90;99.90
24226;DHT22;51462;51.422;5.514;2023-02-01T09:58:12;6.90;99.90
24226;DHT22;51462;51.422;5.514;2023-02-01T10:00:41;6.90;99.90
24226;DHT22;51462;51.422;5.514;2023-02-01T10:03:11;7.00;99.90
24226;DHT22;51462;51.422;5.514;2023-02-01T10:13:57;7.10;99.90
24226;DHT22;51462;51.422;5.514;2023-02-01T10:27:22;7.50;99.90
24226;DHT22;51462;51.422;5.514;2023-02-01T10:29:55;7.70;99.90
24226;DHT22;51462;51.422;5.514;2023-02-01T10:32:29;7.80;99.90
24226;DHT22;51462;51.422;5.514;2023-02-01T10:34:58;7.90;99.90
24226;DHT22;51462;51.422;5.514;2023-02-01T10:37:31;7.90;99.90
24226;DHT22;51462;51.422;5.514;2023-02-01T10:40:12;7.90;99.90
24226;DHT22;51462;51.422;5.514;2023-02-01T10:42:40;7.90;99.90
24226;DHT22;51462;51.422;5.514;2023-02-01T10:45:06;7.80;99.90
24226;DHT22;51462;51.422;5.514;2023-02-01T10:47:32;7.90;99.90
24226;DHT22;51462;51.422;5.514;2023-02-01T10:50:19;7.90;99.90
24226;DHT22;51462;51.422;5.514;2023-02-01T10:53:06;7.90;99.90
24226;DHT22;51462;51.422;5.514;2023-02-01T10:58:19;7.90;99.90
24226;DHT22;51462;51.422;5.514;2023-02-01T11:00:53;7.90;99.90
24226;DHT22;51462;51.422;5.514;2023-02-01T11:05:57;7.90;99.90
24226;DHT22;51462;51.422;5.514;2023-02-01T11:08:23;8.00;99.90
24226;DHT22;51462;51.422;5.514;2023-02-01T11:11:01;8.00;99.90
24226;DHT22;51462;51.422;5.514;2023-02-01T11:13:32;7.90;99.90
24226;DHT22;51462;51.422;5.514;2023-02-01T11:16:02;8.00;99.90
24226;DHT22;51462;51.422;5.514;2023-02-01T11:18:30;8.00;99.90
24226;DHT22;51462;51.422;5.514;2023-02-01T11:20:57;8.00;99.90
24226;DHT22;51462;51.422;5.514;2023-02-01T11:23:26;7.90;99.90
24226;DHT22;51462;51.422;5.514;2023-02-01T11:25:55;7.90;99.90
24226;DHT22;51462;51.422;5.514;2023-02-01T11:28:24;7.90;99.90
24226;DHT22;51462;51.422;5.514;2023-02-01T11:30:50;7.90;99.90
24226;DHT22;51462;51.422;5.514;2023-02-01T11:33:19;7.90;99.90
24226;DHT22;51462;51.422;5.514;2023-02-01T11:35:46;8.00;99.90
24226;DHT22;51462;51.422;5.514;2023-02-01T11:38:30;7.90;99.90
24226;DHT22;51462;51.422;5.514;2023-02-01T11:41:25;7.90;99.90
24226;DHT22;51462;51.422;5.514;2023-02-01T11:43:54;8.00;99.90
24226;DHT22;51462;51.422;5.514;2023-02-01T11:46:23;8.00;99.90
24226;DHT22;51462;51.422;5.514;2023-02-01T11:48:52;8.10;99.90
24226;DHT22;51462;51.422;5.514;2023-02-01T11:54:32;8.00;99.90
24226;DHT22;51462;51.422;5.514;2023-02-01T12:19:27;8.10;99.90
24226;DHT22;51462;51.422;5.514;2023-02-01T12:24:53;8.10;99.90
24226;DHT22;51462;51.422;5.514;2023-02-01T12:30:39;8.10;99.90
24226;DHT22;51462;51.422;5.514;2023-02-01T12:38:43;8.10;99.90
24226;DHT22;51462;51.422;5.514;2023-02-01T12:41:23;8.20;99.90
24226;DHT22;51462;51.422;5.514;2023-02-01T12:44:01;8.20;99.90
24226;DHT22;51462;51.422;5.514;2023-02-01T12:46:37;8.20;99.90
24226;DHT22;51462;51.422;5.514;2023-02-01T12:49:18;8.20;99.90
24226;DHT22;51462;51.422;5.514;2023-02-01T12:51:49;8.20;99.90
24226;DHT22;51462;51.422;5.514;2023-02-01T12:54:19;8.20;99.90
24226;DHT22;51462;51.422;5.514;2023-02-01T12:59:26;8.20;99.90
24226;DHT22;51462;51.422;5.514;2023-02-01T13:02:16;8.20;99.90
24226;DHT22;51462;51.422;5.514;2023-02-01T13:05:02;8.30;99.90
24226;DHT22;51462;51.422;5.514;2023-02-01T13:07:36;8.30;99.90
24226;DHT22;51462;51.422;5.514;2023-02-01T13:10:32;8.30;99.90
24226;DHT22;51462;51.422;5.514;2023-02-01T13:13:02;8.30;99.90
24226;DHT22;51462;51.422;5.514;2023-02-01T13:15:33;8.30;99.90
24226;DHT22;51462;51.422;5.514;2023-02-01T13:18:04;8.30;99.90
24226;DHT22;51462;51.422;5.514;2023-02-01T13:20:35;8.30;99.90
24226;DHT22;51462;51.422;5.514;2023-02-01T13:25:51;8.30;99.90
24226;DHT22;51462;51.422;5.514;2023-02-01T13:28:36;8.40;99.90
24226;DHT22;51462;51.422;5.514;2023-02-01T13:36:57;8.40;99.90
24226;DHT22;51462;51.422;5.514;2023-02-01T13:42:27;8.50;99.90
24226;DHT22;51462;51.422;5.514;2023-02-01T13:45:05;8.40;99.90
24226;DHT22;51462;51.422;5.514;2023-02-01T13:47:39;8.50;99.90
24226;DHT22;51462;51.422;5.514;2023-02-01T13:53:16;8.50;99.90
24226;DHT22;51462;51.422;5.514;2023-02-01T13:55:47;8.50;99.90
24226;DHT22;51462;51.422;5.514;2023-02-01T13:59:00;8.60;99.90
24226;DHT22;51462;51.422;5.514;2023-02-01T14:04:05;8.50;99.90
24226;DHT22;51462;51.422;5.514;2023-02-01T14:11:50;8.50;99.90
24226;DHT22;51462;51.422;5.514;2023-02-01T14:19:36;8.50;99.90
24226;DHT22;51462;51.422;5.514;2023-02-01T14:24:50;8.50;99.90
24226;DHT22;51462;51.422;5.514;2023-02-01T14:27:21;8.40;99.90
24226;DHT22;51462;51.422;5.514;2023-02-01T14:29:53;8.40;99.90
24226;DHT22;51462;51.422;5.514;2023-02-01T14:32:36;8.50;99.90
24226;DHT22;51462;51.422;5.514;2023-02-01T14:35:07;8.40;99.90
24226;DHT22;51462;51.422;5.514;2023-02-01T14:37:35;8.50;99.90
24226;DHT22;51462;51.422;5.514;2023-02-01T15:01:04;8.30;99.90
24226;DHT22;51462;51.422;5.514;2023-02-01T15:03:47;8.30;99.90
24226;DHT22;51462;51.422;5.514;2023-02-01T15:09:46;8.30;99.90
24226;DHT22;51462;51.422;5.514;2023-02-01T15:14:42;8.30;99.90
24226;DHT22;51462;51.422;5.514;2023-02-01T15:20:01;8.40;99.90
24226;DHT22;51462;51.422;5.514;2023-02-01T15:22:28;8.30;99.90
24226;DHT22;51462;51.422;5.514;2023-02-01T15:24:57;8.30;99.90
24226;DHT22;51462;51.422;5.514;2023-02-01T15:27:23;8.30;99.90
24226;DHT22;51462;51.422;5.514;2023-02-01T15:29:49;8.30;99.90
24226;DHT22;51462;51.422;5.514;2023-02-01T15:32:31;8.30;99.90
24226;DHT22;51462;51.422;5.514;2023-02-01T15:34:57;8.30;99.90
24226;DHT22;51462;51.422;5.514;2023-02-01T15:37:23;8.30;99.90
24226;DHT22;51462;51.422;5.514;2023-02-01T15:40:19;8.30;99.90
24226;DHT22;51462;51.422;5.514;2023-02-01T15:42:53;8.20;99.90
24226;DHT22;51462;51.422;5.514;2023-02-01T15:45:20;8.30;99.90
24226;DHT22;51462;51.422;5.514;2023-02-01T15:47:48;8.30;99.90
24226;DHT22;51462;51.422;5.514;2023-02-01T15:50:19;8.20;99.90
24226;DHT22;51462;51.422;5.514;2023-02-01T15:52:47;8.20;99.90
24226;DHT22;51462;51.422;5.514;2023-02-01T15:55:23;8.20;99.90
24226;DHT22;51462;51.422;5.514;2023-02-01T15:57:53;8.20;99.90
24226;DHT22;51462;51.422;5.514;2023-02-01T16:03:20;8.20;99.90
24226;DHT22;51462;51.422;5.514;2023-02-01T16:05:55;8.20;99.90
24226;DHT22;51462;51.422;5.514;2023-02-01T16:08:24;8.10;99.90
24226;DHT22;51462;51.422;5.514;2023-02-01T16:10:53;8.10;99.90
24226;DHT22;51462;51.422;5.514;2023-02-01T16:13:20;8.10;99.90
24226;DHT22;51462;51.422;5.514;2023-02-01T16:15:46;8.10;99.90
24226;DHT22;51462;51.422;5.514;2023-02-01T16:18:13;8.10;99.90
24226;DHT22;51462;51.422;5.514;2023-02-01T16:20:41;8.10;99.90
24226;DHT22;51462;51.422;5.514;2023-02-01T16:23:08;8.10;99.90
24226;DHT22;51462;51.422;5.514;2023-02-01T16:25:35;8.10;99.90
24226;DHT22;51462;51.422;5.514;2023-02-01T16:28:00;8.00;99.90
24226;DHT22;51462;51.422;5.514;2023-02-01T16:30:26;8.10;99.90
24226;DHT22;51462;51.422;5.514;2023-02-01T16:32:56;8.10;99.90
24226;DHT22;51462;51.422;5.514;2023-02-01T16:35:25;8.10;99.90
24226;DHT22;51462;51.422;5.514;2023-02-01T16:37:51;8.10;99.90
24226;DHT22;51462;51.422;5.514;2023-02-01T16:40:18;8.10;99.90
24226;DHT22;51462;51.422;5.514;2023-02-01T16:42:46;8.10;99.90
24226;DHT22;51462;51.422;5.514;2023-02-01T16:45:13;8.10;99.90
24226;DHT22;51462;51.422;5.514;2023-02-01T16:47:43;8.10;99.90
24226;DHT22;51462;51.422;5.514;2023-02-01T16:50:18;8.10;99.90
24226;DHT22;51462;51.422;5.514;2023-02-01T16:52:46;8.20;99.90
24226;DHT22;51462;51.422;5.514;2023-02-01T16:55:16;8.20;99.90
24226;DHT22;51462;51.422;5.514;2023-02-01T16:57:42;8.20;99.90
24226;DHT22;51462;51.422;5.514;2023-02-01T17:00:10;8.20;99.90
24226;DHT22;51462;51.422;5.514;2023-02-01T17:02:35;8.20;99.90
24226;DHT22;51462;51.422;5.514;2023-02-01T17:05:01;8.20;99.90
24226;DHT22;51462;51.422;5.514;2023-02-01T17:07:27;8.20;99.90
24226;DHT22;51462;51.422;5.514;2023-02-01T17:09:52;8.20;99.90
24226;DHT22;51462;51.422;5.514;2023-02-01T17:12:25;8.20;99.90
24226;DHT22;51462;51.422;5.514;2023-02-01T17:14:51;8.20;99.90
24226;DHT22;51462;51.422;5.514;2023-02-01T17:17:18;8.20;99.90
24226;DHT22;51462;51.422;5.514;2023-02-01T17:19:47;8.20;99.90
24226;DHT22;51462;51.422;5.514;2023-02-01T17:22:15;8.20;99.90
24226;DHT22;51462;51.422;5.514;2023-02-01T17:24:41;8.20;99.90
24226;DHT22;51462;51.422;5.514;2023-02-01T17:27:06;8.20;99.90
24226;DHT22;51462;51.422;5.514;2023-02-01T17:29:32;8.20;99.90
24226;DHT22;51462;51.422;5.514;2023-02-01T17:31:58;8.20;99.90
24226;DHT22;51462;51.422;5.514;2023-02-01T17:34:24;8.20;99.90
24226;DHT22;51462;51.422;5.514;2023-02-01T17:36:50;8.20;99.90
24226;DHT22;51462;51.422;5.514;2023-02-01T17:39:17;8.10;99.90
24226;DHT22;51462;51.422;5.514;2023-02-01T17:42:02;8.10;99.90
24226;DHT22;51462;51.422;5.514;2023-02-01T17:44:28;8.20;99.90
24226;DHT22;51462;51.422;5.514;2023-02-01T17:46:53;8.10;99.90
24226;DHT22;51462;51.422;5.514;2023-02-01T17:49:21;8.20;99.90
24226;DHT22;51462;51.422;5.514;2023-02-01T17:51:47;8.10;99.90
24226;DHT22;51462;51.422;5.514;2023-02-01T17:54:15;8.20;99.90
24226;DHT22;51462;51.422;5.514;2023-02-01T17:56:42;8.20;99.90
24226;DHT22;51462;51.422;5.514;2023-02-01T17:59:07;8.10;99.90
24226;DHT22;51462;51.422;5.514;2023-02-01T18:01:33;8.10;99.90
24226;DHT22;51462;51.422;5.514;2023-02-01T18:03:59;8.20;99.90
24226;DHT22;51462;51.422;5.514;2023-02-01T18:06:26;8.20;99.90
24226;DHT22;51462;51.422;5.514;2023-02-01T18:08:52;8.10;99.90
24226;DHT22;51462;51.422;5.514;2023-02-01T18:11:20;8.10;99.90
24226;DHT22;51462;51.422;5.514;2023-02-01T18:13:47;8.20;99.90
24226;DHT22;51462;51.422;5.514;2023-02-01T18:16:17;8.10;99.90
24226;DHT22;51462;51.422;5.514;2023-02-01T18:18:43;8.20;99.90
24226;DHT22;51462;51.422;5.514;2023-02-01T18:21:09;8.20;99.90
24226;DHT22;51462;51.422;5.514;2023-02-01T18:23:35;8.20;99.90
24226;DHT22;51462;51.422;5.514;2023-02-01T18:26:00;8.20;99.90
24226;DHT22;51462;51.422;5.514;2023-02-01T18:28:26;8.20;99.90
24226;DHT22;51462;51.422;5.514;2023-02-01T18:30:52;8.20;99.90
24226;DHT22;51462;51.422;5.514;2023-02-01T18:33:19;8.20;99.90
24226;DHT22;51462;51.422;5.514;2023-02-01T18:35:46;8.30;99.90
24226;DHT22;51462;51.422;5.514;2023-02-01T18:38:11;8.20;99.90
24226;DHT22;51462;51.422;5.514;2023-02-01T18:40:52;8.20;99.90
24226;DHT22;51462;51.422;5.514;2023-02-01T18:43:19;8.20;99.90